sensor_id;sensor_type;location;lat;lon;timestamp;temperature;humidity
8664;DHT22;4369;47.842;13.096;2022-10-18T00:01:13;12.00;99.90
8664;DHT22;4369;47.842;13.096;2022-10-18T00:03:40;12.10;99.90
8664;DHT22;4369;47.842;13.096;2022-10-18T00:06:09;12.10;99.90
8664;DHT22;4369;47.842;13.096;2022-10-18T00:08:37;12.00;99.90
8664;DHT22;4369;47.842;13.096;2022-10-18T00:11:05;12.00;99.90
8664;DHT22;4369;47.842;13.096;2022-10-18T00:13:32;12.00;99.90
8664;DHT22;4369;47.842;13.096;2022-10-18T00:16:00;12.00;99.90
8664;DHT22;4369;47.842;13.096;2022-10-18T00:18:28;12.00;99.90
8664;DHT22;4369;47.842;13.096;2022-10-18T00:20:57;11.90;99.90
8664;DHT22;4369;47.842;13.096;2022-10-18T00:23:25;12.00;99.90
8664;DHT22;4369;47.842;13.096;2022-10-18T00:26:01;11.90;99.90
8664;DHT22;4369;47.842;13.096;2022-10-18T00:28:28;12.00;99.90
8664;DHT22;4369;47.842;13.096;2022-10-18T00:30:55;11.90;99.90
8664;DHT22;4369;47.842;13.096;2022-10-18T00:33:22;11.90;99.90
8664;DHT22;4369;47.842;13.096;2022-10-18T00:35:49;11.90;99.90
8664;DHT22;4369;47.842;13.096;2022-10-18T00:38:16;11.90;99.90
8664;DHT22;4369;47.842;13.096;2022-10-18T00:40:44;11.90;99.90
8664;DHT22;4369;47.842;13.096;2022-10-18T00:43:14;11.80;99.90
8664;DHT22;4369;47.842;13.096;2022-10-18T00:45:41;11.80;99.90
8664;DHT22;4369;47.842;13.096;2022-10-18T00:48:08;11.90;99.90
8664;DHT22;4369;47.842;13.096;2022-10-18T00:50:37;11.80;99.90
8664;DHT22;4369;47.842;13.096;2022-10-18T00:53:10;11.80;99.90
8664;DHT22;4369;47.842;13.096;2022-10-18T00:55:38;11.80;99.90
8664;DHT22;4369;47.842;13.096;2022-10-18T00:58:07;11.80;99.90
8664;DHT22;4369;47.842;13.096;2022-10-18T01:00:34;11.80;99.90
8664;DHT22;4369;47.842;13.096;2022-10-18T01:03:04;11.70;99.90
8664;DHT22;4369;47.842;13.096;2022-10-18T01:05:31;11.70;99.90
8664;DHT22;4369;47.842;13.096;2022-10-18T01:08:31;11.60;99.90
8664;DHT22;4369;47.842;13.096;2022-10-18T01:11:11;11.60;99.90
8664;DHT22;4369;47.842;13.096;2022-10-18T01:13:55;11.60;99.90
8664;DHT22;4369;47.842;13.096;2022-10-18T01:16:30;11.60;99.90
8664;DHT22;4369;47.842;13.096;2022-10-18T01:19:02;11.60;99.90
8664;DHT22;4369;47.842;13.096;2022-10-18T01:21:37;11.60;99.90
8664;DHT22;4369;47.842;13.096;2022-10-18T01:27:26;11.60;99.90
8664;DHT22;4369;47.842;13.096;2022-10-18T01:32:59;11.50;99.90
8664;DHT22;4369;47.842;13.096;2022-10-18T01:35:30;11.50;99.90
8664;DHT22;4369;47.842;13.096;2022-10-18T01:38:00;11.50;99.90
8664;DHT22;4369;47.842;13.096;2022-10-18T01:40:29;11.50;99.90
8664;DHT22;4369;47.842;13.096;2022-10-18T01:42:57;11.60;99.90
8664;DHT22;4369;47.842;13.096;2022-10-18T01:45:25;11.60;99.90
8664;DHT22;4369;47.842;13.096;2022-10-18T01:47:53;11.60;99.90
8664;DHT22;4369;47.842;13.096;2022-10-18T01:50:29;11.50;99.90
8664;DHT22;4369;47.842;13.096;2022-10-18T01:52:56;11.50;99.90
8664;DHT22;4369;47.842;13.096;2022-10-18T01:55:29;11.50;99.90
8664;DHT22;4369;47.842;13.096;2022-10-18T01:58:03;11.50;99.90
8664;DHT22;4369;47.842;13.096;2022-10-18T02:00:36;11.50;99.90
8664;DHT22;4369;47.842;13.096;2022-10-18T02:03:06;11.50;99.90
8664;DHT22;4369;47.842;13.096;2022-10-18T02:05:38;11.50;99.90
8664;DHT22;4369;47.842;13.096;2022-10-18T02:08:14;11.50;99.90
8664;DHT22;4369;47.842;13.096;2022-10-18T02:10:46;11.50;99.90
8664;DHT22;4369;47.842;13.096;2022-10-18T02:13:16;11.40;99.90
8664;DHT22;4369;47.842;13.096;2022-10-18T02:15:46;11.40;99.90
8664;DHT22;4369;47.842;13.096;2022-10-18T02:18:17;11.40;99.90
8664;DHT22;4369;47.842;13.096;2022-10-18T02:20:47;11.40;99.90
8664;DHT22;4369;47.842;13.096;2022-10-18T02:23:18;11.40;99.90
8664;DHT22;4369;47.842;13.096;2022-10-18T02:25:46;11.30;99.90
8664;DHT22;4369;47.842;13.096;2022-10-18T02:28:13;11.40;99.90
8664;DHT22;4369;47.842;13.096;2022-10-18T02:30:46;11.40;99.90
8664;DHT22;4369;47.842;13.096;2022-10-18T02:33:17;11.40;99.90
8664;DHT22;4369;47.842;13.096;2022-10-18T02:35:51;11.40;99.90
8664;DHT22;4369;47.842;13.096;2022-10-18T02:38:19;11.40;99.90
8664;DHT22;4369;47.842;13.096;2022-10-18T02:40:46;11.40;99.90
8664;DHT22;4369;47.842;13.096;2022-10-18T02:43:13;11.40;99.90
8664;DHT22;4369;47.842;13.096;2022-10-18T02:45:40;11.40;99.90
8664;DHT22;4369;47.842;13.096;2022-10-18T02:48:07;11.40;99.90
8664;DHT22;4369;47.842;13.096;2022-10-18T02:50:34;11.40;99.90
8664;DHT22;4369;47.842;13.096;2022-10-18T02:53:03;11.40;99.90
8664;DHT22;4369;47.842;13.096;2022-10-18T02:55:29;11.40;99.90
8664;DHT22;4369;47.842;13.096;2022-10-18T02:57:56;11.40;99.90
8664;DHT22;4369;47.842;13.096;2022-10-18T03:00:23;11.40;99.90
8664;DHT22;4369;47.842;13.096;2022-10-18T03:02:50;11.40;99.90
8664;DHT22;4369;47.842;13.096;2022-10-18T03:05:18;11.40;99.90
8664;DHT22;4369;47.842;13.096;2022-10-18T03:07:45;11.40;99.90
8664;DHT22;4369;47.842;13.096;2022-10-18T03:10:13;11.40;99.90
8664;DHT22;4369;47.842;13.096;2022-10-18T03:12:40;11.30;99.90
8664;DHT22;4369;47.842;13.096;2022-10-18T03:15:07;11.30;99.90
8664;DHT22;4369;47.842;13.096;2022-10-18T03:17:34;11.40;99.90
8664;DHT22;4369;47.842;13.096;2022-10-18T03:20:01;11.40;99.90
8664;DHT22;4369;47.842;13.096;2022-10-18T03:22:28;11.40;99.90
8664;DHT22;4369;47.842;13.096;2022-10-18T03:24:54;11.30;99.90
8664;DHT22;4369;47.842;13.096;2022-10-18T03:27:23;11.30;99.90
8664;DHT22;4369;47.842;13.096;2022-10-18T03:29:49;11.20;99.90
8664;DHT22;4369;47.842;13.096;2022-10-18T03:32:16;11.20;99.90
8664;DHT22;4369;47.842;13.096;2022-10-18T03:34:44;11.20;99.90
8664;DHT22;4369;47.842;13.096;2022-10-18T03:37:10;11.20;99.90
8664;DHT22;4369;47.842;13.096;2022-10-18T03:39:37;11.10;99.90
8664;DHT22;4369;47.842;13.096;2022-10-18T03:42:04;11.00;99.90
8664;DHT22;4369;47.842;13.096;2022-10-18T03:44:32;11.00;99.90
8664;DHT22;4369;47.842;13.096;2022-10-18T03:46:59;11.00;99.90
8664;DHT22;4369;47.842;13.096;2022-10-18T03:49:26;11.00;99.90
8664;DHT22;4369;47.842;13.096;2022-10-18T03:51:53;11.00;99.90
8664;DHT22;4369;47.842;13.096;2022-10-18T03:54:19;11.00;99.90
8664;DHT22;4369;47.842;13.096;2022-10-18T03:56:46;11.00;99.90
8664;DHT22;4369;47.842;13.096;2022-10-18T03:59:13;10.90;99.90
8664;DHT22;4369;47.842;13.096;2022-10-18T04:01:42;11.00;99.90
8664;DHT22;4369;47.842;13.096;2022-10-18T04:04:09;10.90;99.90
8664;DHT22;4369;47.842;13.096;2022-10-18T04:06:36;11.00;99.90
8664;DHT22;4369;47.842;13.096;2022-10-18T04:09:03;11.00;99.90
8664;DHT22;4369;47.842;13.096;2022-10-18T04:11:30;11.00;99.90
8664;DHT22;4369;47.842;13.096;2022-10-18T04:13:57;10.90;99.90
8664;DHT22;4369;47.842;13.096;2022-10-18T04:16:24;10.80;99.90
8664;DHT22;4369;47.842;13.096;2022-10-18T04:18:52;10.80;99.90
8664;DHT22;4369;47.842;13.096;2022-10-18T04:21:19;10.80;99.90
8664;DHT22;4369;47.842;13.096;2022-10-18T04:23:46;10.80;99.90
8664;DHT22;4369;47.842;13.096;2022-10-18T04:26:13;10.80;99.90
8664;DHT22;4369;47.842;13.096;2022-10-18T04:28:41;10.90;99.90
8664;DHT22;4369;47.842;13.096;2022-10-18T04:31:08;10.80;99.90
8664;DHT22;4369;47.842;13.096;2022-10-18T04:33:35;10.80;99.90
8664;DHT22;4369;47.842;13.096;2022-10-18T04:36:04;10.70;99.90
8664;DHT22;4369;47.842;13.096;2022-10-18T04:38:30;10.70;99.90
8664;DHT22;4369;47.842;13.096;2022-10-18T04:40:57;10.70;99.90
8664;DHT22;4369;47.842;13.096;2022-10-18T04:43:24;10.70;99.90
8664;DHT22;4369;47.842;13.096;2022-10-18T04:45:51;10.70;99.90
8664;DHT22;4369;47.842;13.096;2022-10-18T04:48:18;10.80;99.90
8664;DHT22;4369;47.842;13.096;2022-10-18T04:50:47;10.80;99.90
8664;DHT22;4369;47.842;13.096;2022-10-18T04:53:15;10.80;99.90
8664;DHT22;4369;47.842;13.096;2022-10-18T04:55:43;10.80;99.90
8664;DHT22;4369;47.842;13.096;2022-10-18T04:58:10;10.80;99.90
8664;DHT22;4369;47.842;13.096;2022-10-18T05:00:38;10.80;99.90
8664;DHT22;4369;47.842;13.096;2022-10-18T05:03:05;10.80;99.90
8664;DHT22;4369;47.842;13.096;2022-10-18T05:05:32;10.70;99.90
8664;DHT22;4369;47.842;13.096;2022-10-18T05:07:59;10.70;99.90
8664;DHT22;4369;47.842;13.096;2022-10-18T05:10:27;10.70;99.90
8664;DHT22;4369;47.842;13.096;2022-10-18T05:12:54;10.60;99.90
8664;DHT22;4369;47.842;13.096;2022-10-18T05:15:21;10.60;99.90
8664;DHT22;4369;47.842;13.096;2022-10-18T05:17:47;10.60;99.90
8664;DHT22;4369;47.842;13.096;2022-10-18T05:20:14;10.60;99.90
8664;DHT22;4369;47.842;13.096;2022-10-18T05:22:41;10.60;99.90
8664;DHT22;4369;47.842;13.096;2022-10-18T05:25:08;10.60;99.90
8664;DHT22;4369;47.842;13.096;2022-10-18T05:27:37;10.60;99.90
8664;DHT22;4369;47.842;13.096;2022-10-18T05:30:04;10.50;99.90
8664;DHT22;4369;47.842;13.096;2022-10-18T05:32:31;10.60;99.90
8664;DHT22;4369;47.842;13.096;2022-10-18T05:34:58;10.60;99.90
8664;DHT22;4369;47.842;13.096;2022-10-18T05:37:25;10.60;99.90
8664;DHT22;4369;47.842;13.096;2022-10-18T05:39:52;10.60;99.90
8664;DHT22;4369;47.842;13.096;2022-10-18T05:42:19;10.60;99.90
8664;DHT22;4369;47.842;13.096;2022-10-18T05:44:47;10.60;99.90
8664;DHT22;4369;47.842;13.096;2022-10-18T05:47:14;10.60;99.90
8664;DHT22;4369;47.842;13.096;2022-10-18T05:49:41;10.60;99.90
8664;DHT22;4369;47.842;13.096;2022-10-18T05:52:07;10.60;99.90
8664;DHT22;4369;47.842;13.096;2022-10-18T05:54:34;10.70;99.90
8664;DHT22;4369;47.842;13.096;2022-10-18T05:57:01;10.70;99.90
8664;DHT22;4369;47.842;13.096;2022-10-18T05:59:28;10.70;99.90
8664;DHT22;4369;47.842;13.096;2022-10-18T06:01:56;10.70;99.90
8664;DHT22;4369;47.842;13.096;2022-10-18T06:04:23;10.70;99.90
8664;DHT22;4369;47.842;13.096;2022-10-18T06:06:49;10.80;99.90
8664;DHT22;4369;47.842;13.096;2022-10-18T06:09:16;10.80;99.90
8664;DHT22;4369;47.842;13.096;2022-10-18T06:11:43;10.80;99.90
8664;DHT22;4369;47.842;13.096;2022-10-18T06:14:10;10.80;99.90
8664;DHT22;4369;47.842;13.096;2022-10-18T06:16:37;10.80;99.90
8664;DHT22;4369;47.842;13.096;2022-10-18T06:19:05;10.80;99.90
8664;DHT22;4369;47.842;13.096;2022-10-18T06:21:32;10.80;99.90
8664;DHT22;4369;47.842;13.096;2022-10-18T06:23:59;10.80;99.90
8664;DHT22;4369;47.842;13.096;2022-10-18T06:26:26;10.80;99.90
8664;DHT22;4369;47.842;13.096;2022-10-18T06:28:53;10.80;99.90
8664;DHT22;4369;47.842;13.096;2022-10-18T06:31:20;10.90;99.90
8664;DHT22;4369;47.842;13.096;2022-10-18T06:33:47;10.90;99.90
8664;DHT22;4369;47.842;13.096;2022-10-18T06:36:17;10.90;99.90
8664;DHT22;4369;47.842;13.096;2022-10-18T06:38:46;10.90;99.90
8664;DHT22;4369;47.842;13.096;2022-10-18T06:41:13;10.90;99.90
8664;DHT22;4369;47.842;13.096;2022-10-18T06:43:40;10.90;99.90
8664;DHT22;4369;47.842;13.096;2022-10-18T06:46:08;11.00;99.90
8664;DHT22;4369;47.842;13.096;2022-10-18T06:48:37;11.00;99.90
8664;DHT22;4369;47.842;13.096;2022-10-18T06:51:05;11.00;99.90
8664;DHT22;4369;47.842;13.096;2022-10-18T06:53:36;11.10;99.90
8664;DHT22;4369;47.842;13.096;2022-10-18T06:56:05;11.20;99.90
8664;DHT22;4369;47.842;13.096;2022-10-18T06:58:32;11.20;99.90
8664;DHT22;4369;47.842;13.096;2022-10-18T07:01:04;11.20;99.90
8664;DHT22;4369;47.842;13.096;2022-10-18T07:03:32;11.30;99.90
8664;DHT22;4369;47.842;13.096;2022-10-18T07:06:00;11.40;99.90
8664;DHT22;4369;47.842;13.096;2022-10-18T07:08:27;11.50;99.90
8664;DHT22;4369;47.842;13.096;2022-10-18T07:10:56;11.70;99.90
8664;DHT22;4369;47.842;13.096;2022-10-18T07:13:23;11.90;99.90
8664;DHT22;4369;47.842;13.096;2022-10-18T07:15:59;12.10;99.90
8664;DHT22;4369;47.842;13.096;2022-10-18T07:18:26;12.30;99.90
8664;DHT22;4369;47.842;13.096;2022-10-18T07:20:53;12.40;99.90
8664;DHT22;4369;47.842;13.096;2022-10-18T07:23:20;12.60;99.90
8664;DHT22;4369;47.842;13.096;2022-10-18T07:25:48;12.70;99.90
8664;DHT22;4369;47.842;13.096;2022-10-18T07:28:16;12.80;99.90
8664;DHT22;4369;47.842;13.096;2022-10-18T07:30:43;12.80;99.90
8664;DHT22;4369;47.842;13.096;2022-10-18T07:33:10;12.80;99.90
8664;DHT22;4369;47.842;13.096;2022-10-18T07:35:37;12.90;99.90
8664;DHT22;4369;47.842;13.096;2022-10-18T07:38:04;12.90;99.90
8664;DHT22;4369;47.842;13.096;2022-10-18T07:40:30;13.00;99.90
8664;DHT22;4369;47.842;13.096;2022-10-18T07:42:57;13.10;99.90
8664;DHT22;4369;47.842;13.096;2022-10-18T07:45:25;13.20;99.90
8664;DHT22;4369;47.842;13.096;2022-10-18T07:47:54;13.30;99.90
8664;DHT22;4369;47.842;13.096;2022-10-18T07:50:21;13.40;99.90
8664;DHT22;4369;47.842;13.096;2022-10-18T07:52:48;13.40;99.90
8664;DHT22;4369;47.842;13.096;2022-10-18T07:55:15;13.50;99.90
8664;DHT22;4369;47.842;13.096;2022-10-18T07:57:42;13.60;99.90
8664;DHT22;4369;47.842;13.096;2022-10-18T08:00:10;13.70;99.90
8664;DHT22;4369;47.842;13.096;2022-10-18T08:02:38;13.80;99.90
8664;DHT22;4369;47.842;13.096;2022-10-18T08:05:05;13.90;99.90
8664;DHT22;4369;47.842;13.096;2022-10-18T08:07:32;13.90;99.90
8664;DHT22;4369;47.842;13.096;2022-10-18T08:09:58;14.00;99.90
8664;DHT22;4369;47.842;13.096;2022-10-18T08:12:25;14.20;99.90
8664;DHT22;4369;47.842;13.096;2022-10-18T08:14:52;14.40;99.90
8664;DHT22;4369;47.842;13.096;2022-10-18T08:17:19;14.40;99.90
8664;DHT22;4369;47.842;13.096;2022-10-18T08:19:47;14.60;99.90
8664;DHT22;4369;47.842;13.096;2022-10-18T08:22:14;14.70;99.90
8664;DHT22;4369;47.842;13.096;2022-10-18T08:24:41;15.00;99.90
8664;DHT22;4369;47.842;13.096;2022-10-18T08:27:08;15.10;99.90
8664;DHT22;4369;47.842;13.096;2022-10-18T08:29:34;15.20;99.90
8664;DHT22;4369;47.842;13.096;2022-10-18T08:32:01;15.40;99.90
8664;DHT22;4369;47.842;13.096;2022-10-18T08:34:28;15.60;99.90
8664;DHT22;4369;47.842;13.096;2022-10-18T08:36:56;15.60;99.90
8664;DHT22;4369;47.842;13.096;2022-10-18T08:39:23;15.80;99.90
8664;DHT22;4369;47.842;13.096;2022-10-18T08:42:14;15.90;99.90
8664;DHT22;4369;47.842;13.096;2022-10-18T08:44:43;16.10;99.90
8664;DHT22;4369;47.842;13.096;2022-10-18T08:47:13;16.30;99.90
8664;DHT22;4369;47.842;13.096;2022-10-18T08:49:43;16.40;99.90
8664;DHT22;4369;47.842;13.096;2022-10-18T08:52:17;16.50;99.90
8664;DHT22;4369;47.842;13.096;2022-10-18T08:54:52;16.60;99.90
8664;DHT22;4369;47.842;13.096;2022-10-18T08:57:22;16.70;99.90
8664;DHT22;4369;47.842;13.096;2022-10-18T08:59:49;17.00;99.90
8664;DHT22;4369;47.842;13.096;2022-10-18T09:02:24;17.20;99.90
8664;DHT22;4369;47.842;13.096;2022-10-18T09:04:57;17.30;99.90
8664;DHT22;4369;47.842;13.096;2022-10-18T09:07:49;17.50;99.90
8664;DHT22;4369;47.842;13.096;2022-10-18T09:10:25;17.70;99.90
8664;DHT22;4369;47.842;13.096;2022-10-18T09:13:09;17.90;99.90
8664;DHT22;4369;47.842;13.096;2022-10-18T09:15:44;18.10;99.90
8664;DHT22;4369;47.842;13.096;2022-10-18T09:18:34;18.20;99.90
8664;DHT22;4369;47.842;13.096;2022-10-18T09:21:15;18.20;99.90
8664;DHT22;4369;47.842;13.096;2022-10-18T09:23:46;18.50;99.90
8664;DHT22;4369;47.842;13.096;2022-10-18T09:26:17;18.70;99.90
8664;DHT22;4369;47.842;13.096;2022-10-18T09:28:57;19.00;99.90
8664;DHT22;4369;47.842;13.096;2022-10-18T09:31:39;19.30;99.90
8664;DHT22;4369;47.842;13.096;2022-10-18T09:34:11;19.50;99.90
8664;DHT22;4369;47.842;13.096;2022-10-18T09:36:39;19.80;99.90
8664;DHT22;4369;47.842;13.096;2022-10-18T09:39:11;20.20;99.90
8664;DHT22;4369;47.842;13.096;2022-10-18T09:41:41;20.30;99.90
8664;DHT22;4369;47.842;13.096;2022-10-18T09:44:14;20.40;99.90
8664;DHT22;4369;47.842;13.096;2022-10-18T09:46:45;20.30;99.90
8664;DHT22;4369;47.842;13.096;2022-10-18T09:49:17;20.50;99.90
8664;DHT22;4369;47.842;13.096;2022-10-18T09:51:46;20.40;99.90
8664;DHT22;4369;47.842;13.096;2022-10-18T09:54:20;20.50;99.90
8664;DHT22;4369;47.842;13.096;2022-10-18T09:56:53;20.70;99.90
8664;DHT22;4369;47.842;13.096;2022-10-18T09:59:29;20.90;99.90
8664;DHT22;4369;47.842;13.096;2022-10-18T10:01:57;21.10;99.90
8664;DHT22;4369;47.842;13.096;2022-10-18T10:04:24;21.50;99.90
8664;DHT22;4369;47.842;13.096;2022-10-18T10:06:52;21.80;99.90
8664;DHT22;4369;47.842;13.096;2022-10-18T10:09:25;22.00;99.90
8664;DHT22;4369;47.842;13.096;2022-10-18T10:11:54;22.20;99.80
8664;DHT22;4369;47.842;13.096;2022-10-18T10:14:23;22.40;96.20
8664;DHT22;4369;47.842;13.096;2022-10-18T10:16:51;22.70;95.90
8664;DHT22;4369;47.842;13.096;2022-10-18T10:19:25;23.00;95.20
8664;DHT22;4369;47.842;13.096;2022-10-18T10:21:56;23.00;93.70
8664;DHT22;4369;47.842;13.096;2022-10-18T10:24:32;23.00;92.80
8664;DHT22;4369;47.842;13.096;2022-10-18T10:27:05;23.20;92.80
8664;DHT22;4369;47.842;13.096;2022-10-18T10:29:53;23.40;92.50
8664;DHT22;4369;47.842;13.096;2022-10-18T10:32:24;23.70;88.20
8664;DHT22;4369;47.842;13.096;2022-10-18T10:34:51;23.90;88.90
8664;DHT22;4369;47.842;13.096;2022-10-18T10:37:30;24.20;84.30
8664;DHT22;4369;47.842;13.096;2022-10-18T10:40:18;24.50;83.00
8664;DHT22;4369;47.842;13.096;2022-10-18T10:43:04;25.20;80.30
8664;DHT22;4369;47.842;13.096;2022-10-18T10:45:34;25.70;81.70
8664;DHT22;4369;47.842;13.096;2022-10-18T10:48:06;26.20;81.70
8664;DHT22;4369;47.842;13.096;2022-10-18T10:50:48;26.40;79.60
8664;DHT22;4369;47.842;13.096;2022-10-18T10:53:27;26.40;76.70
8664;DHT22;4369;47.842;13.096;2022-10-18T10:55:57;26.20;77.00
8664;DHT22;4369;47.842;13.096;2022-10-18T10:58:26;25.90;75.50
8664;DHT22;4369;47.842;13.096;2022-10-18T11:00:55;25.60;74.80
8664;DHT22;4369;47.842;13.096;2022-10-18T11:03:22;25.40;77.90
8664;DHT22;4369;47.842;13.096;2022-10-18T11:05:51;25.20;79.70
8664;DHT22;4369;47.842;13.096;2022-10-18T11:08:22;25.20;78.70
8664;DHT22;4369;47.842;13.096;2022-10-18T11:10:59;25.90;77.60
8664;DHT22;4369;47.842;13.096;2022-10-18T11:13:37;27.40;72.40
8664;DHT22;4369;47.842;13.096;2022-10-18T11:16:12;30.20;64.60
8664;DHT22;4369;47.842;13.096;2022-10-18T11:18:42;31.30;56.60
8664;DHT22;4369;47.842;13.096;2022-10-18T11:21:14;32.10;52.50
8664;DHT22;4369;47.842;13.096;2022-10-18T11:23:43;32.20;51.00
8664;DHT22;4369;47.842;13.096;2022-10-18T11:26:32;31.30;51.90
8664;DHT22;4369;47.842;13.096;2022-10-18T11:29:21;31.30;54.30
8664;DHT22;4369;47.842;13.096;2022-10-18T11:31:58;33.70;51.90
8664;DHT22;4369;47.842;13.096;2022-10-18T11:34:45;33.90;48.90
8664;DHT22;4369;47.842;13.096;2022-10-18T11:37:25;33.10;50.10
8664;DHT22;4369;47.842;13.096;2022-10-18T11:40:03;31.60;50.20
8664;DHT22;4369;47.842;13.096;2022-10-18T11:42:43;30.60;52.70
8664;DHT22;4369;47.842;13.096;2022-10-18T11:45:27;30.80;52.50
8664;DHT22;4369;47.842;13.096;2022-10-18T11:48:00;33.30;50.20
8664;DHT22;4369;47.842;13.096;2022-10-18T11:50:37;38.10;44.00
8664;DHT22;4369;47.842;13.096;2022-10-18T11:53:15;43.30;37.20
8664;DHT22;4369;47.842;13.096;2022-10-18T11:55:56;46.70;31.40
8664;DHT22;4369;47.842;13.096;2022-10-18T11:58:41;48.80;28.80
8664;DHT22;4369;47.842;13.096;2022-10-18T12:01:18;50.30;27.50
8664;DHT22;4369;47.842;13.096;2022-10-18T12:03:53;51.70;26.10
8664;DHT22;4369;47.842;13.096;2022-10-18T12:06:25;48.90;26.60
8664;DHT22;4369;47.842;13.096;2022-10-18T12:08:56;43.40;28.80
8664;DHT22;4369;47.842;13.096;2022-10-18T12:11:29;39.90;32.80
8664;DHT22;4369;47.842;13.096;2022-10-18T12:14:01;38.40;35.80
8664;DHT22;4369;47.842;13.096;2022-10-18T12:16:32;40.70;33.70
8664;DHT22;4369;47.842;13.096;2022-10-18T12:19:03;44.10;31.30
8664;DHT22;4369;47.842;13.096;2022-10-18T12:21:32;46.80;29.30
8664;DHT22;4369;47.842;13.096;2022-10-18T12:24:02;48.30;27.50
8664;DHT22;4369;47.842;13.096;2022-10-18T12:26:29;49.40;27.00
8664;DHT22;4369;47.842;13.096;2022-10-18T12:29:07;49.70;26.90
8664;DHT22;4369;47.842;13.096;2022-10-18T12:31:41;50.40;26.90
8664;DHT22;4369;47.842;13.096;2022-10-18T12:34:23;51.30;26.00
8664;DHT22;4369;47.842;13.096;2022-10-18T12:37:02;51.40;26.10
8664;DHT22;4369;47.842;13.096;2022-10-18T12:39:39;51.90;25.50
8664;DHT22;4369;47.842;13.096;2022-10-18T12:42:19;52.30;25.20
8664;DHT22;4369;47.842;13.096;2022-10-18T12:44:48;51.50;24.70
8664;DHT22;4369;47.842;13.096;2022-10-18T12:47:25;51.50;24.90
8664;DHT22;4369;47.842;13.096;2022-10-18T12:49:57;51.50;24.90
8664;DHT22;4369;47.842;13.096;2022-10-18T12:52:25;52.40;24.60
8664;DHT22;4369;47.842;13.096;2022-10-18T12:55:05;50.50;24.50
8664;DHT22;4369;47.842;13.096;2022-10-18T12:58:01;50.90;25.60
8664;DHT22;4369;47.842;13.096;2022-10-18T13:00:51;50.40;25.10
8664;DHT22;4369;47.842;13.096;2022-10-18T13:03:37;49.30;25.30
8664;DHT22;4369;47.842;13.096;2022-10-18T13:06:05;49.20;25.40
8664;DHT22;4369;47.842;13.096;2022-10-18T13:08:38;49.60;26.10
8664;DHT22;4369;47.842;13.096;2022-10-18T13:11:33;49.50;25.90
8664;DHT22;4369;47.842;13.096;2022-10-18T13:17:20;48.50;25.70
8664;DHT22;4369;47.842;13.096;2022-10-18T13:19:55;44.40;27.70
8664;DHT22;4369;47.842;13.096;2022-10-18T13:22:48;42.40;31.10
8664;DHT22;4369;47.842;13.096;2022-10-18T13:25:20;40.40;31.20
8664;DHT22;4369;47.842;13.096;2022-10-18T13:27:53;38.10;34.60
8664;DHT22;4369;47.842;13.096;2022-10-18T13:30:38;36.70;36.60
8664;DHT22;4369;47.842;13.096;2022-10-18T13:33:24;34.80;39.70
8664;DHT22;4369;47.842;13.096;2022-10-18T13:35:55;33.30;42.10
8664;DHT22;4369;47.842;13.096;2022-10-18T13:38:39;32.10;44.20
8664;DHT22;4369;47.842;13.096;2022-10-18T13:41:09;30.90;46.70
8664;DHT22;4369;47.842;13.096;2022-10-18T13:44:02;29.90;47.10
8664;DHT22;4369;47.842;13.096;2022-10-18T13:49:56;28.10;53.30
8664;DHT22;4369;47.842;13.096;2022-10-18T13:52:31;27.60;56.50
8664;DHT22;4369;47.842;13.096;2022-10-18T13:55:12;27.30;58.20
8664;DHT22;4369;47.842;13.096;2022-10-18T13:57:46;27.00;58.00
8664;DHT22;4369;47.842;13.096;2022-10-18T14:00:25;26.70;60.70
8664;DHT22;4369;47.842;13.096;2022-10-18T14:03:11;26.60;64.90
8664;DHT22;4369;47.842;13.096;2022-10-18T14:05:51;26.60;65.50
8664;DHT22;4369;47.842;13.096;2022-10-18T14:08:21;26.60;63.60
8664;DHT22;4369;47.842;13.096;2022-10-18T14:10:56;26.70;66.50
8664;DHT22;4369;47.842;13.096;2022-10-18T14:13:27;26.20;69.20
8664;DHT22;4369;47.842;13.096;2022-10-18T14:16:03;26.30;71.10
8664;DHT22;4369;47.842;13.096;2022-10-18T14:18:33;26.10;74.10
8664;DHT22;4369;47.842;13.096;2022-10-18T14:21:07;26.10;74.00
8664;DHT22;4369;47.842;13.096;2022-10-18T14:23:40;26.40;75.10
8664;DHT22;4369;47.842;13.096;2022-10-18T14:26:13;26.50;74.90
8664;DHT22;4369;47.842;13.096;2022-10-18T14:28:41;26.80;74.00
8664;DHT22;4369;47.842;13.096;2022-10-18T14:31:12;26.50;74.80
8664;DHT22;4369;47.842;13.096;2022-10-18T14:33:42;26.30;75.00
8664;DHT22;4369;47.842;13.096;2022-10-18T14:36:12;26.20;72.70
8664;DHT22;4369;47.842;13.096;2022-10-18T14:38:46;26.10;71.50
8664;DHT22;4369;47.842;13.096;2022-10-18T14:41:15;25.80;73.30
8664;DHT22;4369;47.842;13.096;2022-10-18T14:43:43;25.40;75.10
8664;DHT22;4369;47.842;13.096;2022-10-18T14:46:17;25.20;80.40
8664;DHT22;4369;47.842;13.096;2022-10-18T14:48:52;25.00;85.40
8664;DHT22;4369;47.842;13.096;2022-10-18T14:51:21;24.70;86.90
8664;DHT22;4369;47.842;13.096;2022-10-18T14:53:48;24.20;85.10
8664;DHT22;4369;47.842;13.096;2022-10-18T14:56:25;24.10;84.80
8664;DHT22;4369;47.842;13.096;2022-10-18T14:58:54;24.00;88.30
8664;DHT22;4369;47.842;13.096;2022-10-18T15:01:24;23.80;90.50
8664;DHT22;4369;47.842;13.096;2022-10-18T15:03:55;23.60;91.70
8664;DHT22;4369;47.842;13.096;2022-10-18T15:06:24;23.50;92.20
8664;DHT22;4369;47.842;13.096;2022-10-18T15:08:55;23.40;93.60
8664;DHT22;4369;47.842;13.096;2022-10-18T15:11:23;23.30;94.50
8664;DHT22;4369;47.842;13.096;2022-10-18T15:13:53;23.20;95.50
8664;DHT22;4369;47.842;13.096;2022-10-18T15:16:24;23.00;95.40
8664;DHT22;4369;47.842;13.096;2022-10-18T15:19:02;22.90;97.70
8664;DHT22;4369;47.842;13.096;2022-10-18T15:21:33;22.70;99.90
8664;DHT22;4369;47.842;13.096;2022-10-18T15:24:28;22.50;99.90
8664;DHT22;4369;47.842;13.096;2022-10-18T15:26:57;22.50;99.90
8664;DHT22;4369;47.842;13.096;2022-10-18T15:29:26;22.30;99.90
8664;DHT22;4369;47.842;13.096;2022-10-18T15:32:04;22.20;99.90
8664;DHT22;4369;47.842;13.096;2022-10-18T15:34:32;22.20;99.90
8664;DHT22;4369;47.842;13.096;2022-10-18T15:37:15;22.00;99.90
8664;DHT22;4369;47.842;13.096;2022-10-18T15:39:43;21.70;99.90
8664;DHT22;4369;47.842;13.096;2022-10-18T15:42:35;21.60;99.90
8664;DHT22;4369;47.842;13.096;2022-10-18T15:47:56;21.30;99.90
8664;DHT22;4369;47.842;13.096;2022-10-18T15:50:36;21.00;99.90
8664;DHT22;4369;47.842;13.096;2022-10-18T15:56:02;20.80;99.90
8664;DHT22;4369;47.842;13.096;2022-10-18T15:58:37;20.40;99.90
8664;DHT22;4369;47.842;13.096;2022-10-18T16:01:06;20.30;99.90
8664;DHT22;4369;47.842;13.096;2022-10-18T16:03:39;20.20;99.90
8664;DHT22;4369;47.842;13.096;2022-10-18T16:06:08;20.20;99.90
8664;DHT22;4369;47.842;13.096;2022-10-18T16:08:39;20.00;99.90
8664;DHT22;4369;47.842;13.096;2022-10-18T16:11:12;19.90;99.90
8664;DHT22;4369;47.842;13.096;2022-10-18T16:13:40;19.90;99.90
8664;DHT22;4369;47.842;13.096;2022-10-18T16:16:11;19.80;99.90
8664;DHT22;4369;47.842;13.096;2022-10-18T16:18:39;19.70;99.90
8664;DHT22;4369;47.842;13.096;2022-10-18T16:21:15;19.60;99.90
8664;DHT22;4369;47.842;13.096;2022-10-18T16:23:42;19.50;99.90
8664;DHT22;4369;47.842;13.096;2022-10-18T16:26:12;19.40;99.90
8664;DHT22;4369;47.842;13.096;2022-10-18T16:28:39;19.30;99.90